sensor_id;sensor_type;location;lat;lon;timestamp;pressure;altitude;pressure_sealevel;temperature;humidity
19108;BME280;9686;48.832;9.126;2024-03-08T00:02:03;98107.16;;;6.41;nan
19108;BME280;9686;48.832;9.126;2024-03-08T00:04:28;98097.66;;;6.40;nan
19108;BME280;9686;48.832;9.126;2024-03-08T00:06:54;98103.72;;;6.47;nan
19108;BME280;9686;48.832;9.126;2024-03-08T00:09:19;98096.75;;;6.34;nan
19108;BME280;9686;48.832;9.126;2024-03-08T00:11:44;98095.75;;;6.23;nan
19108;BME280;9686;48.832;9.126;2024-03-08T00:14:10;98095.75;;;6.21;nan
19108;BME280;9686;48.832;9.126;2024-03-08T00:16:35;98095.72;;;6.18;nan
19108;BME280;9686;48.832;9.126;2024-03-08T00:19:01;98091.41;;;6.18;nan
19108;BME280;9686;48.832;9.126;2024-03-08T00:21:26;98086.25;;;6.22;nan
19108;BME280;9686;48.832;9.126;2024-03-08T00:23:52;98083.59;;;6.12;nan
19108;BME280;9686;48.832;9.126;2024-03-08T00:26:20;98088.84;;;6.20;nan
19108;BME280;9686;48.832;9.126;2024-03-08T00:28:47;98097.41;;;6.14;nan
19108;BME280;9686;48.832;9.126;2024-03-08T00:31:13;98082.78;;;6.19;nan
19108;BME280;9686;48.832;9.126;2024-03-08T00:33:39;98087.06;;;6.16;nan
19108;BME280;9686;48.832;9.126;2024-03-08T00:36:04;98083.56;;;6.08;nan
19108;BME280;9686;48.832;9.126;2024-03-08T00:38:30;98079.28;;;6.11;nan
19108;BME280;9686;48.832;9.126;2024-03-08T00:40:56;98076.66;;;6.08;nan
19108;BME280;9686;48.832;9.126;2024-03-08T00:43:22;98072.31;;;6.04;nan
19108;BME280;9686;48.832;9.126;2024-03-08T00:45:47;98069.75;;;6.07;nan
19108;BME280;9686;48.832;9.126;2024-03-08T00:48:12;98079.34;;;6.22;nan
19108;BME280;9686;48.832;9.126;2024-03-08T00:50:37;98075.25;;;6.45;nan
19108;BME280;9686;48.832;9.126;2024-03-08T00:53:03;98069.19;;;6.45;nan
19108;BME280;9686;48.832;9.126;2024-03-08T00:55:29;98064.13;;;6.56;nan
19108;BME280;9686;48.832;9.126;2024-03-08T00:57:55;98059.69;;;6.42;nan
19108;BME280;9686;48.832;9.126;2024-03-08T01:00:20;98064.75;;;6.26;nan
19108;BME280;9686;48.832;9.126;2024-03-08T01:02:45;98062.91;;;6.15;nan
19108;BME280;9686;48.832;9.126;2024-03-08T01:05:11;98066.16;;;5.96;nan
19108;BME280;9686;48.832;9.126;2024-03-08T01:07:36;98066.22;;;5.99;nan
19108;BME280;9686;48.832;9.126;2024-03-08T01:10:03;98053.13;;;5.87;nan
19108;BME280;9686;48.832;9.126;2024-03-08T01:12:28;98056.47;;;5.74;nan
19108;BME280;9686;48.832;9.126;2024-03-08T01:14:54;98049.59;;;5.77;nan
19108;BME280;9686;48.832;9.126;2024-03-08T01:17:20;98052.00;;;5.62;nan
19108;BME280;9686;48.832;9.126;2024-03-08T01:19:45;98050.31;;;5.67;nan
19108;BME280;9686;48.832;9.126;2024-03-08T01:22:10;98045.97;;;5.62;nan
19108;BME280;9686;48.832;9.126;2024-03-08T01:24:36;98040.75;;;5.57;nan
19108;BME280;9686;48.832;9.126;2024-03-08T01:27:02;98040.81;;;5.65;nan
19108;BME280;9686;48.832;9.126;2024-03-08T01:29:28;98037.88;;;6.13;nan
19108;BME280;9686;48.832;9.126;2024-03-08T01:31:55;98031.84;;;6.12;nan
19108;BME280;9686;48.832;9.126;2024-03-08T01:34:20;98025.00;;;6.21;nan
19108;BME280;9686;48.832;9.126;2024-03-08T01:36:45;98019.03;;;6.26;nan
19108;BME280;9686;48.832;9.126;2024-03-08T01:39:11;98023.25;;;6.18;nan
19108;BME280;9686;48.832;9.126;2024-03-08T01:41:36;98025.94;;;6.29;nan
19108;BME280;9686;48.832;9.126;2024-03-08T01:44:02;98027.56;;;6.17;nan
19108;BME280;9686;48.832;9.126;2024-03-08T01:46:28;98016.31;;;6.14;nan
19108;BME280;9686;48.832;9.126;2024-03-08T01:48:54;98015.50;;;6.21;nan
19108;BME280;9686;48.832;9.126;2024-03-08T01:51:20;98006.78;;;6.07;nan
19108;BME280;9686;48.832;9.126;2024-03-08T01:53:46;97997.28;;;6.04;nan
19108;BME280;9686;48.832;9.126;2024-03-08T01:56:13;97997.31;;;6.09;nan
19108;BME280;9686;48.832;9.126;2024-03-08T01:58:40;97991.22;;;6.01;nan
19108;BME280;9686;48.832;9.126;2024-03-08T02:01:07;97985.13;;;5.97;nan
19108;BME280;9686;48.832;9.126;2024-03-08T02:03:34;97980.75;;;5.90;nan
19108;BME280;9686;48.832;9.126;2024-03-08T02:05:59;97980.59;;;5.73;nan
19108;BME280;9686;48.832;9.126;2024-03-08T02:08:25;97987.09;;;5.36;nan
19108;BME280;9686;48.832;9.126;2024-03-08T02:10:50;97983.44;;;5.17;nan
19108;BME280;9686;48.832;9.126;2024-03-08T02:13:16;97980.91;;;5.20;nan
19108;BME280;9686;48.832;9.126;2024-03-08T02:15:51;97972.03;;;5.80;nan
19108;BME280;9686;48.832;9.126;2024-03-08T02:18:17;97971.22;;;5.86;nan
19108;BME280;9686;48.832;9.126;2024-03-08T02:20:43;97965.16;;;5.84;nan
19108;BME280;9686;48.832;9.126;2024-03-08T02:23:08;97956.50;;;5.79;nan
19108;BME280;9686;48.832;9.126;2024-03-08T02:25:34;97958.13;;;5.71;nan
19108;BME280;9686;48.832;9.126;2024-03-08T02:28:00;97946.03;;;5.67;nan
19108;BME280;9686;48.832;9.126;2024-03-08T02:30:25;97945.25;;;5.74;nan
19108;BME280;9686;48.832;9.126;2024-03-08T02:32:54;97946.88;;;5.64;nan
19108;BME280;9686;48.832;9.126;2024-03-08T02:35:20;97945.16;;;5.65;nan
19108;BME280;9686;48.832;9.126;2024-03-08T02:37:45;97948.63;;;5.68;nan
19108;BME280;9686;48.832;9.126;2024-03-08T02:40:13;97939.97;;;5.63;nan
19108;BME280;9686;48.832;9.126;2024-03-08T02:42:38;97933.97;;;5.69;nan
19108;BME280;9686;48.832;9.126;2024-03-08T02:45:04;97936.72;;;4.98;nan
19108;BME280;9686;48.832;9.126;2024-03-08T02:47:31;97942.28;;;5.36;nan
19108;BME280;9686;48.832;9.126;2024-03-08T02:49:56;97945.38;;;5.00;nan
19108;BME280;9686;48.832;9.126;2024-03-08T02:52:21;97938.44;;;4.95;nan
19108;BME280;9686;48.832;9.126;2024-03-08T02:54:48;97936.81;;;5.07;nan
19108;BME280;9686;48.832;9.126;2024-03-08T02:57:13;97933.34;;;5.03;nan
19108;BME280;9686;48.832;9.126;2024-03-08T02:59:39;97928.94;;;4.94;nan
19108;BME280;9686;48.832;9.126;2024-03-08T03:02:05;97933.22;;;4.94;nan
19108;BME280;9686;48.832;9.126;2024-03-08T03:04:31;97933.13;;;4.86;nan
19108;BME280;9686;48.832;9.126;2024-03-08T03:06:58;97934.78;;;4.78;nan
19108;BME280;9686;48.832;9.126;2024-03-08T03:09:23;97935.63;;;4.79;nan
19108;BME280;9686;48.832;9.126;2024-03-08T03:11:53;97930.47;;;4.77;nan
19108;BME280;9686;48.832;9.126;2024-03-08T03:14:18;97926.25;;;4.87;nan
19108;BME280;9686;48.832;9.126;2024-03-08T03:16:44;97918.19;;;4.61;nan
19108;BME280;9686;48.832;9.126;2024-03-08T03:19:11;97924.41;;;4.74;nan
19108;BME280;9686;48.832;9.126;2024-03-08T03:21:36;97925.13;;;4.65;nan
19108;BME280;9686;48.832;9.126;2024-03-08T03:24:03;97924.22;;;4.60;nan
19108;BME280;9686;48.832;9.126;2024-03-08T03:26:29;97919.97;;;4.67;nan
19108;BME280;9686;48.832;9.126;2024-03-08T03:28:56;97923.47;;;4.69;nan
19108;BME280;9686;48.832;9.126;2024-03-08T03:31:22;97912.31;;;4.71;nan
19108;BME280;9686;48.832;9.126;2024-03-08T03:33:49;97908.66;;;4.55;nan
19108;BME280;9686;48.832;9.126;2024-03-08T03:36:16;97909.47;;;4.51;nan
19108;BME280;9686;48.832;9.126;2024-03-08T03:38:43;97905.19;;;4.52;nan
19108;BME280;9686;48.832;9.126;2024-03-08T03:41:08;97903.81;;;4.80;nan
19108;BME280;9686;48.832;9.126;2024-03-08T03:43:37;97899.28;;;4.62;nan
19108;BME280;9686;48.832;9.126;2024-03-08T03:46:07;97899.06;;;4.44;nan
19108;BME280;9686;48.832;9.126;2024-03-08T03:48:33;97908.56;;;4.46;nan
19108;BME280;9686;48.832;9.126;2024-03-08T03:50:58;97899.97;;;4.47;nan
19108;BME280;9686;48.832;9.126;2024-03-08T03:53:23;97900.72;;;4.40;nan
19108;BME280;9686;48.832;9.126;2024-03-08T03:55:51;97897.22;;;4.37;nan
19108;BME280;9686;48.832;9.126;2024-03-08T03:58:16;97892.00;;;4.30;nan
19108;BME280;9686;48.832;9.126;2024-03-08T04:00:47;97900.69;;;4.37;nan
19108;BME280;9686;48.832;9.126;2024-03-08T04:03:12;97892.84;;;4.29;nan
19108;BME280;9686;48.832;9.126;2024-03-08T04:05:37;97896.19;;;4.22;nan
19108;BME280;9686;48.832;9.126;2024-03-08T04:08:03;97895.31;;;4.20;nan
19108;BME280;9686;48.832;9.126;2024-03-08T04:10:28;97895.28;;;4.19;nan
19108;BME280;9686;48.832;9.126;2024-03-08T04:12:53;97893.72;;;4.31;nan
19108;BME280;9686;48.832;9.126;2024-03-08T04:15:19;97890.94;;;4.84;nan
19108;BME280;9686;48.832;9.126;2024-03-08T04:17:45;97882.50;;;4.98;nan
19108;BME280;9686;48.832;9.126;2024-03-08T04:20:11;97883.22;;;4.87;nan
19108;BME280;9686;48.832;9.126;2024-03-08T04:22:39;97878.84;;;4.79;nan
19108;BME280;9686;48.832;9.126;2024-03-08T04:25:05;97875.38;;;4.77;nan
19108;BME280;9686;48.832;9.126;2024-03-08T04:27:35;97877.94;;;4.74;nan
19108;BME280;9686;48.832;9.126;2024-03-08T04:30:01;97869.44;;;4.85;nan
19108;BME280;9686;48.832;9.126;2024-03-08T04:32:26;97875.47;;;4.87;nan
19108;BME280;9686;48.832;9.126;2024-03-08T04:34:54;97868.66;;;4.94;nan
19108;BME280;9686;48.832;9.126;2024-03-08T04:37:20;97868.63;;;4.89;nan
19108;BME280;9686;48.832;9.126;2024-03-08T04:39:48;97874.72;;;4.96;nan
19108;BME280;9686;48.832;9.126;2024-03-08T04:42:14;97878.09;;;4.92;nan
19108;BME280;9686;48.832;9.126;2024-03-08T04:44:41;97870.50;;;5.06;nan
19108;BME280;9686;48.832;9.126;2024-03-08T04:47:06;97875.69;;;5.06;nan
19108;BME280;9686;48.832;9.126;2024-03-08T04:49:32;97868.84;;;5.11;nan
19108;BME280;9686;48.832;9.126;2024-03-08T04:52:01;97868.78;;;4.30;nan
19108;BME280;9686;48.832;9.126;2024-03-08T04:54:27;97862.47;;;4.10;nan
19108;BME280;9686;48.832;9.126;2024-03-08T04:56:53;97864.22;;;4.11;nan
19108;BME280;9686;48.832;9.126;2024-03-08T04:59:18;97860.09;;;4.22;nan
19108;BME280;9686;48.832;9.126;2024-03-08T05:01:44;97868.63;;;4.17;nan
19108;BME280;9686;48.832;9.126;2024-03-08T05:04:10;97867.69;;;4.15;nan
19108;BME280;9686;48.832;9.126;2024-03-08T05:06:35;97859.91;;;4.12;nan
19108;BME280;9686;48.832;9.126;2024-03-08T05:09:01;97861.66;;;4.13;nan
19108;BME280;9686;48.832;9.126;2024-03-08T05:11:42;97849.72;;;4.19;nan
19108;BME280;9686;48.832;9.126;2024-03-08T05:14:09;97856.72;;;4.28;nan
19108;BME280;9686;48.832;9.126;2024-03-08T05:16:34;97854.69;;;4.07;nan
19108;BME280;9686;48.832;9.126;2024-03-08T05:18:59;97859.16;;;4.17;nan
19108;BME280;9686;48.832;9.126;2024-03-08T05:21:25;97859.09;;;4.16;nan
19108;BME280;9686;48.832;9.126;2024-03-08T05:23:50;97859.97;;;4.16;nan
19108;BME280;9686;48.832;9.126;2024-03-08T05:26:16;97850.59;;;4.20;nan
19108;BME280;9686;48.832;9.126;2024-03-08T05:28:41;97853.94;;;4.14;nan
19108;BME280;9686;48.832;9.126;2024-03-08T05:31:07;97849.72;;;4.19;nan
19108;BME280;9686;48.832;9.126;2024-03-08T05:33:32;97853.94;;;4.14;nan
19108;BME280;9686;48.832;9.126;2024-03-08T05:36:00;97848.03;;;4.21;nan
19108;BME280;9686;48.832;9.126;2024-03-08T05:38:25;97848.06;;;4.23;nan
19108;BME280;9686;48.832;9.126;2024-03-08T05:40:51;97840.25;;;4.17;nan
19108;BME280;9686;48.832;9.126;2024-03-08T05:43:16;97842.81;;;4.17;nan
19108;BME280;9686;48.832;9.126;2024-03-08T05:45:45;97844.56;;;4.19;nan
19108;BME280;9686;48.832;9.126;2024-03-08T05:48:10;97846.41;;;4.29;nan
19108;BME280;9686;48.832;9.126;2024-03-08T05:50:37;97841.91;;;4.16;nan
19108;BME280;9686;48.832;9.126;2024-03-08T05:53:03;97842.03;;;4.22;nan
19108;BME280;9686;48.832;9.126;2024-03-08T05:55:34;97844.63;;;4.25;nan
19108;BME280;9686;48.832;9.126;2024-03-08T05:58:02;97841.22;;;4.26;nan
19108;BME280;9686;48.832;9.126;2024-03-08T06:00:28;97838.53;;;4.17;nan
19108;BME280;9686;48.832;9.126;2024-03-08T06:02:53;97834.28;;;4.21;nan
19108;BME280;9686;48.832;9.126;2024-03-08T06:05:18;97835.25;;;4.32;nan
19108;BME280;9686;48.832;9.126;2024-03-08T06:07:44;97837.78;;;4.27;nan
19108;BME280;9686;48.832;9.126;2024-03-08T06:10:12;97829.28;;;4.38;nan
19108;BME280;9686;48.832;9.126;2024-03-08T06:12:38;97830.34;;;4.52;nan
19108;BME280;9686;48.832;9.126;2024-03-08T06:15:07;97838.81;;;4.42;nan
19108;BME280;9686;48.832;9.126;2024-03-08T06:17:34;97835.28;;;4.33;nan
19108;BME280;9686;48.832;9.126;2024-03-08T06:19:59;97834.50;;;4.42;nan
19108;BME280;9686;48.832;9.126;2024-03-08T06:22:25;97839.72;;;4.45;nan
19108;BME280;9686;48.832;9.126;2024-03-08T06:24:50;97830.69;;;4.84;nan
19108;BME280;9686;48.832;9.126;2024-03-08T06:27:16;97837.38;;;4.67;nan
19108;BME280;9686;48.832;9.126;2024-03-08T06:29:42;97836.31;;;4.46;nan
19108;BME280;9686;48.832;9.126;2024-03-08T06:32:08;97835.50;;;4.52;nan
19108;BME280;9686;48.832;9.126;2024-03-08T06:34:34;97840.22;;;4.89;nan
19108;BME280;9686;48.832;9.126;2024-03-08T06:37:01;97834.16;;;4.86;nan
19108;BME280;9686;48.832;9.126;2024-03-08T06:39:27;97843.28;;;4.56;nan
19108;BME280;9686;48.832;9.126;2024-03-08T06:41:56;97845.13;;;4.67;nan
19108;BME280;9686;48.832;9.126;2024-03-08T06:44:22;97841.59;;;4.60;nan
19108;BME280;9686;48.832;9.126;2024-03-08T06:46:47;97839.88;;;4.59;nan
19108;BME280;9686;48.832;9.126;2024-03-08T06:49:13;97839.84;;;4.56;nan
19108;BME280;9686;48.832;9.126;2024-03-08T06:51:38;97839.91;;;4.62;nan
19108;BME280;9686;48.832;9.126;2024-03-08T06:54:06;97831.31;;;4.61;nan
19108;BME280;9686;48.832;9.126;2024-03-08T06:56:34;97840.03;;;4.71;nan
19108;BME280;9686;48.832;9.126;2024-03-08T06:58:59;97835.72;;;4.72;nan
19108;BME280;9686;48.832;9.126;2024-03-08T07:01:25;97835.72;;;4.69;nan
19108;BME280;9686;48.832;9.126;2024-03-08T07:03:50;97838.50;;;4.93;nan
19108;BME280;9686;48.832;9.126;2024-03-08T07:06:20;97841.16;;;4.94;nan
19108;BME280;9686;48.832;9.126;2024-03-08T07:08:45;97829.19;;;5.04;nan
19108;BME280;9686;48.832;9.126;2024-03-08T07:11:11;97835.28;;;5.14;nan
19108;BME280;9686;48.832;9.126;2024-03-08T07:13:37;97827.63;;;5.23;nan
19108;BME280;9686;48.832;9.126;2024-03-08T07:16:04;97829.44;;;5.35;nan
19108;BME280;9686;48.832;9.126;2024-03-08T07:18:30;97818.44;;;5.62;nan
19108;BME280;9686;48.832;9.126;2024-03-08T07:20:55;97817.53;;;5.53;nan
19108;BME280;9686;48.832;9.126;2024-03-08T07:23:21;97814.13;;;5.62;nan
19108;BME280;9686;48.832;9.126;2024-03-08T07:26:05;97820.28;;;5.75;nan
19108;BME280;9686;48.832;9.126;2024-03-08T07:28:30;97812.56;;;5.81;nan
19108;BME280;9686;48.832;9.126;2024-03-08T07:30:57;97807.47;;;5.90;nan
19108;BME280;9686;48.832;9.126;2024-03-08T07:33:48;97807.56;;;6.07;nan
19108;BME280;9686;48.832;9.126;2024-03-08T07:36:15;97807.56;;;6.05;nan
19108;BME280;9686;48.832;9.126;2024-03-08T07:38:40;97811.84;;;6.03;nan
19108;BME280;9686;48.832;9.126;2024-03-08T07:41:06;97809.34;;;6.20;nan
19108;BME280;9686;48.832;9.126;2024-03-08T07:43:31;97802.63;;;6.71;nan
19108;BME280;9686;48.832;9.126;2024-03-08T07:45:57;97802.63;;;6.69;nan
19108;BME280;9686;48.832;9.126;2024-03-08T07:48:23;97806.94;;;6.70;nan
19108;BME280;9686;48.832;9.126;2024-03-08T07:50:48;97801.81;;;6.96;nan
19108;BME280;9686;48.832;9.126;2024-03-08T07:53:15;97791.44;;;6.86;nan
19108;BME280;9686;48.832;9.126;2024-03-08T07:55:40;97799.25;;;7.04;nan
19108;BME280;9686;48.832;9.126;2024-03-08T07:58:07;97794.03;;;6.96;nan
19108;BME280;9686;48.832;9.126;2024-03-08T08:00:34;97788.84;;;6.99;nan
19108;BME280;9686;48.832;9.126;2024-03-08T08:03:01;97792.25;;;6.65;nan
19108;BME280;9686;48.832;9.126;2024-03-08T08:05:26;97789.66;;;6.65;nan
19108;BME280;9686;48.832;9.126;2024-03-08T08:07:52;97789.66;;;6.63;nan
19108;BME280;9686;48.832;9.126;2024-03-08T08:10:18;97788.78;;;6.63;nan
19108;BME280;9686;48.832;9.126;2024-03-08T08:12:49;97790.53;;;6.68;nan
19108;BME280;9686;48.832;9.126;2024-03-08T08:15:15;97790.53;;;6.61;nan
19108;BME280;9686;48.832;9.126;2024-03-08T08:17:46;97789.72;;;6.85;nan
19108;BME280;9686;48.832;9.126;2024-03-08T08:20:12;97783.66;;;6.90;nan
19108;BME280;9686;48.832;9.126;2024-03-08T08:22:39;97782.81;;;6.91;nan
19108;BME280;9686;48.832;9.126;2024-03-08T08:25:08;97782.81;;;7.02;nan
19108;BME280;9686;48.832;9.126;2024-03-08T08:27:34;97778.50;;;7.02;nan
19108;BME280;9686;48.832;9.126;2024-03-08T08:29:59;97771.59;;;7.20;nan
19108;BME280;9686;48.832;9.126;2024-03-08T08:32:25;97766.44;;;7.14;nan
19108;BME280;9686;48.832;9.126;2024-03-08T08:34:51;97781.13;;;7.05;nan
19108;BME280;9686;48.832;9.126;2024-03-08T08:37:16;97769.00;;;7.14;nan
19108;BME280;9686;48.832;9.126;2024-03-08T08:39:42;97767.28;;;7.14;nan
19108;BME280;9686;48.832;9.126;2024-03-08T08:42:07;97765.56;;;7.21;nan
19108;BME280;9686;48.832;9.126;2024-03-08T08:44:37;97757.78;;;7.18;nan
19108;BME280;9686;48.832;9.126;2024-03-08T08:47:02;97758.66;;;7.33;nan
19108;BME280;9686;48.832;9.126;2024-03-08T08:49:30;97765.53;;;7.25;nan
19108;BME280;9686;48.832;9.126;2024-03-08T08:51:56;97761.25;;;7.36;nan
19108;BME280;9686;48.832;9.126;2024-03-08T08:54:23;97762.06;;;7.51;nan
19108;BME280;9686;48.832;9.126;2024-03-08T08:56:50;97761.22;;;7.47;nan
19108;BME280;9686;48.832;9.126;2024-03-08T08:59:15;97756.03;;;7.59;nan
19108;BME280;9686;48.832;9.126;2024-03-08T09:01:44;97760.34;;;7.57;nan
19108;BME280;9686;48.832;9.126;2024-03-08T09:04:12;97750.84;;;7.52;nan
19108;BME280;9686;48.832;9.126;2024-03-08T09:06:37;97764.66;;;7.48;nan
19108;BME280;9686;48.832;9.126;2024-03-08T09:09:02;97761.25;;;7.33;nan
19108;BME280;9686;48.832;9.126;2024-03-08T09:11:29;97760.38;;;7.39;nan
19108;BME280;9686;48.832;9.126;2024-03-08T09:13:55;97762.06;;;7.51;nan
19108;BME280;9686;48.832;9.126;2024-03-08T09:16:20;97755.19;;;7.37;nan
19108;BME280;9686;48.832;9.126;2024-03-08T09:18:45;97756.03;;;7.50;nan
19108;BME280;9686;48.832;9.126;2024-03-08T09:21:10;97751.72;;;7.41;nan
19108;BME280;9686;48.832;9.126;2024-03-08T09:23:36;97748.25;;;7.59;nan
19108;BME280;9686;48.832;9.126;2024-03-08T09:26:01;97748.19;;;7.78;nan
19108;BME280;9686;48.832;9.126;2024-03-08T09:28:29;97744.78;;;7.59;nan
19108;BME280;9686;48.832;9.126;2024-03-08T09:30:54;97745.63;;;7.65;nan
19108;BME280;9686;48.832;9.126;2024-03-08T09:33:20;97729.25;;;7.47;nan
19108;BME280;9686;48.832;9.126;2024-03-08T09:35:46;97737.00;;;7.54;nan
19108;BME280;9686;48.832;9.126;2024-03-08T09:38:12;97738.69;;;7.72;nan
19108;BME280;9686;48.832;9.126;2024-03-08T09:40:41;97738.69;;;7.73;nan
19108;BME280;9686;48.832;9.126;2024-03-08T09:43:06;97724.84;;;7.79;nan
19108;BME280;9686;48.832;9.126;2024-03-08T09:45:35;97731.72;;;7.92;nan
19108;BME280;9686;48.832;9.126;2024-03-08T09:48:02;97729.06;;;8.04;nan
19108;BME280;9686;48.832;9.126;2024-03-08T09:50:27;97724.75;;;8.08;nan
19108;BME280;9686;48.832;9.126;2024-03-08T09:52:55;97728.16;;;8.18;nan
19108;BME280;9686;48.832;9.126;2024-03-08T09:55:22;97723.03;;;8.10;nan
19108;BME280;9686;48.832;9.126;2024-03-08T09:57:49;97731.63;;;8.20;nan
19108;BME280;9686;48.832;9.126;2024-03-08T10:00:39;97723.78;;;8.27;nan
19108;BME280;9686;48.832;9.126;2024-03-08T10:03:06;97723.81;;;8.33;nan
19108;BME280;9686;48.832;9.126;2024-03-08T10:05:31;97709.94;;;8.33;nan
19108;BME280;9686;48.832;9.126;2024-03-08T10:07:59;97713.34;;;8.47;nan
19108;BME280;9686;48.832;9.126;2024-03-08T10:10:24;97708.91;;;8.58;nan
19108;BME280;9686;48.832;9.126;2024-03-08T10:12:51;97708.91;;;8.66;nan
19108;BME280;9686;48.832;9.126;2024-03-08T10:15:17;97707.16;;;8.68;nan
19108;BME280;9686;48.832;9.126;2024-03-08T10:17:42;97708.03;;;8.67;nan
19108;BME280;9686;48.832;9.126;2024-03-08T10:20:16;97704.56;;;8.65;nan
19108;BME280;9686;48.832;9.126;2024-03-08T10:22:42;97696.81;;;8.62;nan
19108;BME280;9686;48.832;9.126;2024-03-08T10:25:12;97691.56;;;8.67;nan
19108;BME280;9686;48.832;9.126;2024-03-08T10:27:41;97701.03;;;8.74;nan
19108;BME280;9686;48.832;9.126;2024-03-08T10:30:10;97691.38;;;8.92;nan
19108;BME280;9686;48.832;9.126;2024-03-08T10:32:38;97688.69;;;9.03;nan
19108;BME280;9686;48.832;9.126;2024-03-08T10:35:04;97686.94;;;9.05;nan
19108;BME280;9686;48.832;9.126;2024-03-08T10:37:29;97682.63;;;9.03;nan
19108;BME280;9686;48.832;9.126;2024-03-08T10:40:03;97680.84;;;9.08;nan
19108;BME280;9686;48.832;9.126;2024-03-08T10:47:49;97660.56;;;9.45;nan
19108;BME280;9686;48.832;9.126;2024-03-08T10:50:19;97672.47;;;9.63;nan
19108;BME280;9686;48.832;9.126;2024-03-08T10:52:51;97667.31;;;9.59;nan
19108;BME280;9686;48.832;9.126;2024-03-08T10:55:20;97668.84;;;9.79;nan
19108;BME280;9686;48.832;9.126;2024-03-08T10:57:46;97659.19;;;9.90;nan
19108;BME280;9686;48.832;9.126;2024-03-08T11:00:16;97666.16;;;9.85;nan
19108;BME280;9686;48.832;9.126;2024-03-08T11:02:45;97671.72;;;9.54;nan
19108;BME280;9686;48.832;9.126;2024-03-08T11:05:11;97662.13;;;9.58;nan
19108;BME280;9686;48.832;9.126;2024-03-08T11:07:42;97659.91;;;10.00;nan
19108;BME280;9686;48.832;9.126;2024-03-08T11:10:19;97655.91;;;10.43;nan
19108;BME280;9686;48.832;9.126;2024-03-08T11:12:45;97652.94;;;10.68;nan
19108;BME280;9686;48.832;9.126;2024-03-08T11:15:12;97641.88;;;10.50;nan
19108;BME280;9686;48.832;9.126;2024-03-08T11:20:10;97639.63;;;10.83;nan
19108;BME280;9686;48.832;9.126;2024-03-08T11:22:40;97639.44;;;10.95;nan
19108;BME280;9686;48.832;9.126;2024-03-08T11:25:08;97641.66;;;11.17;nan
19108;BME280;9686;48.832;9.126;2024-03-08T11:27:37;97640.13;;;11.06;nan
19108;BME280;9686;48.832;9.126;2024-03-08T11:30:04;97631.16;;;11.21;nan
19108;BME280;9686;48.832;9.126;2024-03-08T11:32:37;97637.38;;;11.60;nan
19108;BME280;9686;48.832;9.126;2024-03-08T11:35:07;97626.63;;;11.79;nan
19108;BME280;9686;48.832;9.126;2024-03-08T11:37:34;97626.94;;;11.60;nan
19108;BME280;9686;48.832;9.126;2024-03-08T11:40:01;97622.72;;;11.99;nan
19108;BME280;9686;48.832;9.126;2024-03-08T11:42:29;97616.81;;;12.30;nan
19108;BME280;9686;48.832;9.126;2024-03-08T11:44:55;97611.69;;;12.25;nan
19108;BME280;9686;48.832;9.126;2024-03-08T11:47:21;97601.16;;;12.65;nan
19108;BME280;9686;48.832;9.126;2024-03-08T11:49:46;97600.94;;;12.38;nan
19108;BME280;9686;48.832;9.126;2024-03-08T11:52:14;97601.78;;;13.11;nan
19108;BME280;9686;48.832;9.126;2024-03-08T11:54:48;97588.84;;;13.99;nan
19108;BME280;9686;48.832;9.126;2024-03-08T11:57:17;97584.06;;;14.41;nan
19108;BME280;9686;48.832;9.126;2024-03-08T11:59:50;97580.06;;;14.30;nan
19108;BME280;9686;48.832;9.126;2024-03-08T12:02:15;97566.16;;;14.56;nan
19108;BME280;9686;48.832;9.126;2024-03-08T12:04:40;97564.06;;;14.67;nan
19108;BME280;9686;48.832;9.126;2024-03-08T12:07:09;97560.34;;;14.99;nan
19108;BME280;9686;48.832;9.126;2024-03-08T12:09:37;97561.81;;;15.56;nan
19108;BME280;9686;48.832;9.126;2024-03-08T12:12:03;97556.16;;;16.58;nan
19108;BME280;9686;48.832;9.126;2024-03-08T12:14:30;97556.84;;;17.06;nan
19108;BME280;9686;48.832;9.126;2024-03-08T12:16:55;97544.53;;;17.47;nan
19108;BME280;9686;48.832;9.126;2024-03-08T12:19:21;97542.34;;;17.16;nan
19108;BME280;9686;48.832;9.126;2024-03-08T12:21:46;97539.13;;;17.50;nan
19108;BME280;9686;48.832;9.126;2024-03-08T12:24:17;97527.53;;;17.34;nan
19108;BME280;9686;48.832;9.126;2024-03-08T12:26:47;97531.16;;;17.51;nan
19108;BME280;9686;48.832;9.126;2024-03-08T12:29:27;97529.16;;;17.56;nan
19108;BME280;9686;48.832;9.126;2024-03-08T12:31:55;97530.78;;;17.98;nan
19108;BME280;9686;48.832;9.126;2024-03-08T12:34:20;97524.88;;;17.74;nan
19108;BME280;9686;48.832;9.126;2024-03-08T12:36:47;97523.31;;;16.89;nan
19108;BME280;9686;48.832;9.126;2024-03-08T12:39:15;97519.59;;;15.85;nan
19108;BME280;9686;48.832;9.126;2024-03-08T12:41:41;97521.94;;;14.45;nan
19108;BME280;9686;48.832;9.126;2024-03-08T12:44:06;97516.16;;;14.06;nan
19108;BME280;9686;48.832;9.126;2024-03-08T12:46:39;97513.72;;;13.41;nan
19108;BME280;9686;48.832;9.126;2024-03-08T12:49:08;97517.34;;;13.96;nan
19108;BME280;9686;48.832;9.126;2024-03-08T12:51:34;97501.78;;;13.32;nan
19108;BME280;9686;48.832;9.126;2024-03-08T12:54:00;97500.53;;;13.13;nan
19108;BME280;9686;48.832;9.126;2024-03-08T12:56:30;97499.41;;;13.23;nan
19108;BME280;9686;48.832;9.126;2024-03-08T12:58:57;97492.59;;;12.51;nan
19108;BME280;9686;48.832;9.126;2024-03-08T13:01:23;97495.66;;;12.32;nan
19108;BME280;9686;48.832;9.126;2024-03-08T13:03:48;97483.09;;;12.11;nan
19108;BME280;9686;48.832;9.126;2024-03-08T13:06:15;97483.94;;;12.13;nan
19108;BME280;9686;48.832;9.126;2024-03-08T13:08:41;97477.84;;;12.13;nan
19108;BME280;9686;48.832;9.126;2024-03-08T13:11:07;97472.84;;;12.03;nan
19108;BME280;9686;48.832;9.126;2024-03-08T13:13:33;97469.75;;;11.86;nan
19108;BME280;9686;48.832;9.126;2024-03-08T13:16:04;97462.53;;;11.59;nan
19108;BME280;9686;48.832;9.126;2024-03-08T13:18:33;97466.53;;;11.35;nan
19108;BME280;9686;48.832;9.126;2024-03-08T13:20:58;97461.97;;;11.43;nan
19108;BME280;9686;48.832;9.126;2024-03-08T13:23:24;97465.03;;;11.63;nan
19108;BME280;9686;48.832;9.126;2024-03-08T13:25:49;97450.16;;;11.67;nan
19108;BME280;9686;48.832;9.126;2024-03-08T13:28:15;97441.53;;;11.63;nan
19108;BME280;9686;48.832;9.126;2024-03-08T13:30:42;97438.22;;;11.57;nan
19108;BME280;9686;48.832;9.126;2024-03-08T13:33:09;97442.69;;;11.52;nan
19108;BME280;9686;48.832;9.126;2024-03-08T13:35:34;97435.72;;;11.52;nan
19108;BME280;9686;48.832;9.126;2024-03-08T13:38:00;97432.78;;;11.66;nan
19108;BME280;9686;48.832;9.126;2024-03-08T13:40:28;97425.94;;;11.60;nan
19108;BME280;9686;48.832;9.126;2024-03-08T13:42:53;97418.94;;;11.62;nan
19108;BME280;9686;48.832;9.126;2024-03-08T13:45:19;97418.59;;;11.78;nan
19108;BME280;9686;48.832;9.126;2024-03-08T13:47:49;97411.75;;;11.72;nan